sensor_id;sensor_type;location;lat;lon;timestamp;pressure;altitude;pressure_sealevel;temperature;humidity
21361;BME280;10839;43.206;23.550;2023-03-18T00:01:18;97688.44;;;4.27;96.67
21361;BME280;10839;43.206;23.550;2023-03-18T00:03:46;97685.34;;;4.03;99.22
21361;BME280;10839;43.206;23.550;2023-03-18T00:06:15;97679.75;;;4.06;98.20
21361;BME280;10839;43.206;23.550;2023-03-18T00:08:44;97679.19;;;3.93;98.87
21361;BME280;10839;43.206;23.550;2023-03-18T00:11:13;97672.91;;;3.75;100.00
21361;BME280;10839;43.206;23.550;2023-03-18T00:13:40;97675.84;;;3.72;100.00
21361;BME280;10839;43.206;23.550;2023-03-18T00:16:08;97673.19;;;3.72;100.00
21361;BME280;10839;43.206;23.550;2023-03-18T00:18:36;97681.94;;;3.25;100.00
21361;BME280;10839;43.206;23.550;2023-03-18T00:21:03;97667.97;;;3.42;100.00
21361;BME280;10839;43.206;23.550;2023-03-18T00:23:31;97671.00;;;3.18;100.00
21361;BME280;10839;43.206;23.550;2023-03-18T00:25:58;97662.28;;;2.88;100.00
21361;BME280;10839;43.206;23.550;2023-03-18T00:28:25;97658.03;;;2.76;100.00
21361;BME280;10839;43.206;23.550;2023-03-18T00:30:53;97655.22;;;2.68;100.00
21361;BME280;10839;43.206;23.550;2023-03-18T00:33:22;97657.88;;;2.37;100.00
21361;BME280;10839;43.206;23.550;2023-03-18T00:35:48;97652.97;;;2.12;100.00
21361;BME280;10839;43.206;23.550;2023-03-18T00:38:14;97668.25;;;1.99;100.00
21361;BME280;10839;43.206;23.550;2023-03-18T00:40:49;97659.84;;;1.94;100.00
21361;BME280;10839;43.206;23.550;2023-03-18T00:43:28;97649.44;;;1.50;100.00
21361;BME280;10839;43.206;23.550;2023-03-18T00:46:01;97655.16;;;1.66;100.00
21361;BME280;10839;43.206;23.550;2023-03-18T00:48:27;97655.75;;;1.70;100.00
21361;BME280;10839;43.206;23.550;2023-03-18T00:50:54;97652.09;;;1.50;100.00
21361;BME280;10839;43.206;23.550;2023-03-18T00:53:20;97655.25;;;1.44;100.00
21361;BME280;10839;43.206;23.550;2023-03-18T00:55:48;97643.50;;;1.78;100.00
21361;BME280;10839;43.206;23.550;2023-03-18T00:58:14;97641.59;;;1.60;100.00
21361;BME280;10839;43.206;23.550;2023-03-18T01:00:39;97634.03;;;1.44;100.00
21361;BME280;10839;43.206;23.550;2023-03-18T01:03:07;97639.75;;;1.60;100.00
21361;BME280;10839;43.206;23.550;2023-03-18T01:05:33;97636.97;;;1.62;100.00
21361;BME280;10839;43.206;23.550;2023-03-18T01:08:02;97643.66;;;1.45;100.00
21361;BME280;10839;43.206;23.550;2023-03-18T01:10:30;97646.41;;;1.55;100.00
21361;BME280;10839;43.206;23.550;2023-03-18T01:12:57;97642.16;;;1.84;100.00
21361;BME280;10839;43.206;23.550;2023-03-18T01:15:23;97629.88;;;1.83;100.00
21361;BME280;10839;43.206;23.550;2023-03-18T01:17:50;97627.84;;;1.75;100.00
21361;BME280;10839;43.206;23.550;2023-03-18T01:20:19;97631.16;;;1.68;100.00
21361;BME280;10839;43.206;23.550;2023-03-18T01:22:48;97638.34;;;1.56;100.00
21361;BME280;10839;43.206;23.550;2023-03-18T01:25:16;97632.72;;;1.50;100.00
21361;BME280;10839;43.206;23.550;2023-03-18T01:27:46;97635.13;;;1.42;100.00
21361;BME280;10839;43.206;23.550;2023-03-18T01:30:13;97646.50;;;1.64;100.00
21361;BME280;10839;43.206;23.550;2023-03-18T01:32:40;97638.06;;;1.59;100.00
21361;BME280;10839;43.206;23.550;2023-03-18T01:35:09;97646.84;;;1.39;100.00
21361;BME280;10839;43.206;23.550;2023-03-18T01:37:39;97637.41;;;1.46;100.00
21361;BME280;10839;43.206;23.550;2023-03-18T01:40:11;97634.69;;;1.57;100.00
21361;BME280;10839;43.206;23.550;2023-03-18T01:42:39;97632.25;;;1.65;100.00
21361;BME280;10839;43.206;23.550;2023-03-18T01:45:14;97628.75;;;1.44;100.00
21361;BME280;10839;43.206;23.550;2023-03-18T01:47:43;97621.06;;;1.62;100.00
21361;BME280;10839;43.206;23.550;2023-03-18T01:50:18;97637.75;;;1.53;100.00
21361;BME280;10839;43.206;23.550;2023-03-18T01:52:46;97632.44;;;1.53;100.00
21361;BME280;10839;43.206;23.550;2023-03-18T01:55:20;97630.41;;;1.45;100.00
21361;BME280;10839;43.206;23.550;2023-03-18T01:57:49;97630.28;;;1.47;100.00
21361;BME280;10839;43.206;23.550;2023-03-18T02:00:17;97624.69;;;1.29;100.00
21361;BME280;10839;43.206;23.550;2023-03-18T02:02:47;97629.59;;;1.13;100.00
21361;BME280;10839;43.206;23.550;2023-03-18T02:05:17;97630.25;;;1.26;100.00
21361;BME280;10839;43.206;23.550;2023-03-18T02:07:45;97628.34;;;1.28;100.00
21361;BME280;10839;43.206;23.550;2023-03-18T02:10:22;97624.97;;;1.26;100.00
21361;BME280;10839;43.206;23.550;2023-03-18T02:12:56;97629.16;;;1.28;100.00
21361;BME280;10839;43.206;23.550;2023-03-18T02:15:29;97633.38;;;1.31;100.00
21361;BME280;10839;43.206;23.550;2023-03-18T02:18:01;97636.75;;;1.33;100.00
21361;BME280;10839;43.206;23.550;2023-03-18T02:26:12;97635.56;;;1.26;100.00
21361;BME280;10839;43.206;23.550;2023-03-18T02:28:40;97636.78;;;1.22;100.00
21361;BME280;10839;43.206;23.550;2023-03-18T02:31:10;97642.38;;;1.08;100.00
21361;BME280;10839;43.206;23.550;2023-03-18T02:33:40;97637.50;;;1.24;100.00
21361;BME280;10839;43.206;23.550;2023-03-18T02:36:13;97641.78;;;1.36;100.00
21361;BME280;10839;43.206;23.550;2023-03-18T02:38:42;97636.22;;;1.39;100.00
21361;BME280;10839;43.206;23.550;2023-03-18T02:41:14;97646.41;;;1.23;100.00
21361;BME280;10839;43.206;23.550;2023-03-18T02:43:41;97646.41;;;1.23;100.00
21361;BME280;10839;43.206;23.550;2023-03-18T02:48:43;97633.19;;;1.12;100.00
21361;BME280;10839;43.206;23.550;2023-03-18T02:51:12;97644.66;;;1.44;100.00
21361;BME280;10839;43.206;23.550;2023-03-18T02:53:39;97636.91;;;1.52;100.00
21361;BME280;10839;43.206;23.550;2023-03-18T02:56:08;97636.38;;;1.58;100.00
21361;BME280;10839;43.206;23.550;2023-03-18T02:58:35;97637.16;;;1.49;100.00
21361;BME280;10839;43.206;23.550;2023-03-18T03:01:04;97634.97;;;1.54;100.00
21361;BME280;10839;43.206;23.550;2023-03-18T03:03:31;97635.88;;;1.64;100.00
21361;BME280;10839;43.206;23.550;2023-03-18T03:05:57;97634.97;;;1.54;100.00
21361;BME280;10839;43.206;23.550;2023-03-18T03:08:23;97635.63;;;1.67;100.00
21361;BME280;10839;43.206;23.550;2023-03-18T03:10:49;97636.28;;;1.80;100.00
21361;BME280;10839;43.206;23.550;2023-03-18T03:13:18;97624.28;;;1.65;100.00
21361;BME280;10839;43.206;23.550;2023-03-18T03:15:45;97636.84;;;1.63;100.00
21361;BME280;10839;43.206;23.550;2023-03-18T03:18:11;97642.75;;;1.87;100.00
21361;BME280;10839;43.206;23.550;2023-03-18T03:20:37;97636.53;;;1.77;100.00
21361;BME280;10839;43.206;23.550;2023-03-18T03:23:07;97631.50;;;1.74;100.00
21361;BME280;10839;43.206;23.550;2023-03-18T03:25:35;97628.31;;;1.80;100.00
21361;BME280;10839;43.206;23.550;2023-03-18T03:28:02;97625.34;;;1.94;100.00
21361;BME280;10839;43.206;23.550;2023-03-18T03:30:28;97633.56;;;1.91;100.00
21361;BME280;10839;43.206;23.550;2023-03-18T03:32:55;97645.78;;;1.83;100.00
21361;BME280;10839;43.206;23.550;2023-03-18T03:35:22;97649.06;;;1.75;100.00
21361;BME280;10839;43.206;23.550;2023-03-18T03:37:49;97646.03;;;1.80;100.00
21361;BME280;10839;43.206;23.550;2023-03-18T03:40:17;97637.75;;;1.73;100.00
21361;BME280;10839;43.206;23.550;2023-03-18T03:42:45;97647.91;;;1.68;100.00
21361;BME280;10839;43.206;23.550;2023-03-18T03:45:13;97649.72;;;1.88;100.00
21361;BME280;10839;43.206;23.550;2023-03-18T03:47:42;97658.13;;;1.93;100.00
21361;BME280;10839;43.206;23.550;2023-03-18T03:50:10;97639.06;;;1.99;100.00
21361;BME280;10839;43.206;23.550;2023-03-18T03:52:36;97643.13;;;2.03;100.00
21361;BME280;10839;43.206;23.550;2023-03-18T03:55:10;97650.75;;;2.17;100.00
21361;BME280;10839;43.206;23.550;2023-03-18T03:57:37;97652.59;;;1.96;100.00
21361;BME280;10839;43.206;23.550;2023-03-18T04:00:05;97658.28;;;1.71;100.00
21361;BME280;10839;43.206;23.550;2023-03-18T04:02:48;97660.84;;;1.82;100.00
21361;BME280;10839;43.206;23.550;2023-03-18T04:05:18;97657.91;;;1.96;100.00
21361;BME280;10839;43.206;23.550;2023-03-18T04:07:46;97634.34;;;1.82;100.00
21361;BME280;10839;43.206;23.550;2023-03-18T04:10:13;97649.81;;;1.98;100.00
21361;BME280;10839;43.206;23.550;2023-03-18T04:12:42;97648.25;;;2.16;100.00
21361;BME280;10839;43.206;23.550;2023-03-18T04:15:15;97651.22;;;2.22;100.00
21361;BME280;10839;43.206;23.550;2023-03-18T04:17:44;97641.22;;;2.15;100.00
21361;BME280;10839;43.206;23.550;2023-03-18T04:20:14;97641.66;;;2.40;100.00
21361;BME280;10839;43.206;23.550;2023-03-18T04:22:42;97651.84;;;2.66;100.00
21361;BME280;10839;43.206;23.550;2023-03-18T04:25:11;97638.66;;;2.54;100.00
21361;BME280;10839;43.206;23.550;2023-03-18T04:27:39;97646.75;;;2.53;100.00
21361;BME280;10839;43.206;23.550;2023-03-18T04:30:10;97646.25;;;2.69;100.00
21361;BME280;10839;43.206;23.550;2023-03-18T04:33:03;97642.81;;;2.47;100.00
21361;BME280;10839;43.206;23.550;2023-03-18T04:35:30;97639.41;;;2.36;100.00
21361;BME280;10839;43.206;23.550;2023-03-18T04:37:57;97639.09;;;2.29;100.00
21361;BME280;10839;43.206;23.550;2023-03-18T04:40:23;97641.09;;;2.37;100.00
21361;BME280;10839;43.206;23.550;2023-03-18T04:42:49;97634.00;;;2.17;100.00
21361;BME280;10839;43.206;23.550;2023-03-18T04:45:21;97629.84;;;2.03;100.00
21361;BME280;10839;43.206;23.550;2023-03-18T04:47:48;97639.88;;;2.20;100.00
21361;BME280;10839;43.206;23.550;2023-03-18T04:50:15;97640.72;;;2.00;100.00
21361;BME280;10839;43.206;23.550;2023-03-18T04:52:42;97639.63;;;1.82;100.00
21361;BME280;10839;43.206;23.550;2023-03-18T04:55:13;97626.63;;;2.00;100.00
21361;BME280;10839;43.206;23.550;2023-03-18T04:57:45;97635.09;;;2.14;100.00
21361;BME280;10839;43.206;23.550;2023-03-18T05:00:16;97633.13;;;2.16;100.00
21361;BME280;10839;43.206;23.550;2023-03-18T05:02:44;97641.75;;;2.29;100.00
21361;BME280;10839;43.206;23.550;2023-03-18T05:05:10;97646.75;;;2.02;100.00
21361;BME280;10839;43.206;23.550;2023-03-18T05:07:42;97659.94;;;1.72;100.00
21361;BME280;10839;43.206;23.550;2023-03-18T05:10:12;97661.97;;;1.48;100.00
21361;BME280;10839;43.206;23.550;2023-03-18T05:12:38;97656.72;;;1.89;100.00
21361;BME280;10839;43.206;23.550;2023-03-18T05:15:06;97655.16;;;2.07;100.00
21361;BME280;10839;43.206;23.550;2023-03-18T05:17:35;97662.94;;;1.99;100.00
21361;BME280;10839;43.206;23.550;2023-03-18T05:20:03;97664.88;;;1.97;100.00
21361;BME280;10839;43.206;23.550;2023-03-18T05:22:29;97663.63;;;2.22;100.00
21361;BME280;10839;43.206;23.550;2023-03-18T05:25:04;97668.75;;;2.34;100.00
21361;BME280;10839;43.206;23.550;2023-03-18T05:27:31;97663.84;;;2.09;100.00
21361;BME280;10839;43.206;23.550;2023-03-18T05:30:08;97666.09;;;2.34;100.00
21361;BME280;10839;43.206;23.550;2023-03-18T05:32:41;97675.00;;;3.90;100.00
21361;BME280;10839;43.206;23.550;2023-03-18T05:35:09;97682.28;;;4.17;97.58
21361;BME280;10839;43.206;23.550;2023-03-18T05:37:44;97671.94;;;4.60;95.19
21361;BME280;10839;43.206;23.550;2023-03-18T05:40:11;97672.25;;;6.44;84.57
21361;BME280;10839;43.206;23.550;2023-03-18T05:42:40;97670.81;;;7.58;73.78
21361;BME280;10839;43.206;23.550;2023-03-18T05:45:06;97661.16;;;8.70;68.80
21361;BME280;10839;43.206;23.550;2023-03-18T05:47:35;97676.03;;;10.64;61.45
21361;BME280;10839;43.206;23.550;2023-03-18T05:50:09;97663.56;;;11.15;57.99
21361;BME280;10839;43.206;23.550;2023-03-18T05:52:37;97663.72;;;11.28;56.23
21361;BME280;10839;43.206;23.550;2023-03-18T05:55:12;97657.69;;;10.30;57.67
21361;BME280;10839;43.206;23.550;2023-03-18T05:57:42;97648.34;;;11.87;53.75
21361;BME280;10839;43.206;23.550;2023-03-18T06:00:09;97644.81;;;13.86;47.85
21361;BME280;10839;43.206;23.550;2023-03-18T06:02:47;97629.97;;;14.81;46.56
21361;BME280;10839;43.206;23.550;2023-03-18T06:05:15;97634.91;;;15.30;43.66
21361;BME280;10839;43.206;23.550;2023-03-18T06:07:44;97626.66;;;17.91;37.48
21361;BME280;10839;43.206;23.550;2023-03-18T06:10:11;97625.56;;;16.52;38.91
21361;BME280;10839;43.206;23.550;2023-03-18T06:12:38;97624.69;;;18.27;35.74
21361;BME280;10839;43.206;23.550;2023-03-18T06:15:08;97611.75;;;19.40;32.07
21361;BME280;10839;43.206;23.550;2023-03-18T06:17:36;97620.31;;;18.56;32.39
21361;BME280;10839;43.206;23.550;2023-03-18T06:20:06;97608.75;;;19.53;31.55
21361;BME280;10839;43.206;23.550;2023-03-18T06:22:34;97620.50;;;20.04;30.63
21361;BME280;10839;43.206;23.550;2023-03-18T06:25:01;97610.91;;;21.08;29.69
21361;BME280;10839;43.206;23.550;2023-03-18T06:27:30;97621.91;;;21.84;30.17
21361;BME280;10839;43.206;23.550;2023-03-18T06:29:58;97619.50;;;20.67;29.57
21361;BME280;10839;43.206;23.550;2023-03-18T06:32:28;97626.09;;;20.38;29.73
21361;BME280;10839;43.206;23.550;2023-03-18T06:34:54;97630.94;;;20.64;29.08
21361;BME280;10839;43.206;23.550;2023-03-18T06:37:22;97626.31;;;15.97;35.44
21361;BME280;10839;43.206;23.550;2023-03-18T06:39:49;97627.34;;;16.33;36.49
21361;BME280;10839;43.206;23.550;2023-03-18T06:42:16;97647.09;;;17.63;35.34
21361;BME280;10839;43.206;23.550;2023-03-18T06:45:14;97642.66;;;20.76;31.29
21361;BME280;10839;43.206;23.550;2023-03-18T06:47:49;97649.06;;;19.85;33.07
21361;BME280;10839;43.206;23.550;2023-03-18T06:50:15;97656.38;;;21.64;30.45
21361;BME280;10839;43.206;23.550;2023-03-18T06:52:42;97668.19;;;21.81;30.96
21361;BME280;10839;43.206;23.550;2023-03-18T06:55:11;97667.16;;;22.08;29.49
21361;BME280;10839;43.206;23.550;2023-03-18T06:57:41;97672.91;;;21.69;30.24
21361;BME280;10839;43.206;23.550;2023-03-18T07:00:09;97677.09;;;22.57;29.07
21361;BME280;10839;43.206;23.550;2023-03-18T07:02:36;97684.78;;;22.55;29.25
21361;BME280;10839;43.206;23.550;2023-03-18T07:05:05;97678.34;;;22.71;29.38
21361;BME280;10839;43.206;23.550;2023-03-18T07:07:33;97689.06;;;22.51;29.35
21361;BME280;10839;43.206;23.550;2023-03-18T07:10:05;97693.59;;;21.98;30.30
21361;BME280;10839;43.206;23.550;2023-03-18T07:12:31;97699.19;;;22.51;29.60
21361;BME280;10839;43.206;23.550;2023-03-18T07:14:57;97697.38;;;22.56;29.30
21361;BME280;10839;43.206;23.550;2023-03-18T07:17:24;97701.56;;;20.67;32.21
21361;BME280;10839;43.206;23.550;2023-03-18T07:19:50;97704.22;;;22.11;30.55
21361;BME280;10839;43.206;23.550;2023-03-18T07:22:16;97710.44;;;22.28;29.48
21361;BME280;10839;43.206;23.550;2023-03-18T07:24:43;97720.47;;;22.17;29.92
21361;BME280;10839;43.206;23.550;2023-03-18T07:27:10;97707.13;;;22.04;29.83
21361;BME280;10839;43.206;23.550;2023-03-18T07:29:39;97714.66;;;21.92;29.88
21361;BME280;10839;43.206;23.550;2023-03-18T07:32:05;97716.50;;;22.51;28.71
21361;BME280;10839;43.206;23.550;2023-03-18T07:34:32;97716.50;;;22.51;28.59
21361;BME280;10839;43.206;23.550;2023-03-18T07:36:57;97709.28;;;21.64;29.90
21361;BME280;10839;43.206;23.550;2023-03-18T07:39:25;97713.69;;;22.46;28.87
21361;BME280;10839;43.206;23.550;2023-03-18T07:41:52;97714.91;;;21.74;29.30
21361;BME280;10839;43.206;23.550;2023-03-18T07:44:25;97709.72;;;23.07;28.08
21361;BME280;10839;43.206;23.550;2023-03-18T07:46:51;97710.03;;;23.11;28.01
21361;BME280;10839;43.206;23.550;2023-03-18T07:49:17;97723.84;;;22.46;29.06
21361;BME280;10839;43.206;23.550;2023-03-18T07:51:43;97720.72;;;21.94;29.52
21361;BME280;10839;43.206;23.550;2023-03-18T07:54:10;97732.31;;;22.44;28.65
21361;BME280;10839;43.206;23.550;2023-03-18T07:56:36;97730.22;;;22.08;29.01
21361;BME280;10839;43.206;23.550;2023-03-18T07:59:02;97724.38;;;21.83;29.33
21361;BME280;10839;43.206;23.550;2023-03-18T08:01:28;97727.69;;;21.69;29.18
21361;BME280;10839;43.206;23.550;2023-03-18T08:03:53;97726.19;;;21.94;29.06
21361;BME280;10839;43.206;23.550;2023-03-18T08:06:19;97738.19;;;22.31;29.03
21361;BME280;10839;43.206;23.550;2023-03-18T08:08:45;97736.34;;;22.37;29.08
21361;BME280;10839;43.206;23.550;2023-03-18T08:11:12;97734.59;;;22.09;29.58
21361;BME280;10839;43.206;23.550;2023-03-18T08:13:39;97727.84;;;23.35;27.95
21361;BME280;10839;43.206;23.550;2023-03-18T08:16:05;97741.19;;;22.30;29.49
21361;BME280;10839;43.206;23.550;2023-03-18T08:18:31;97741.44;;;22.28;29.43
21361;BME280;10839;43.206;23.550;2023-03-18T08:20:57;97736.56;;;22.30;28.64
21361;BME280;10839;43.206;23.550;2023-03-18T08:23:23;97729.69;;;21.56;29.21
21361;BME280;10839;43.206;23.550;2023-03-18T08:25:50;97729.34;;;21.53;29.51
21361;BME280;10839;43.206;23.550;2023-03-18T08:28:17;97735.50;;;21.60;29.50
21361;BME280;10839;43.206;23.550;2023-03-18T08:30:43;97734.66;;;21.43;28.97
21361;BME280;10839;43.206;23.550;2023-03-18T08:33:09;97740.81;;;21.83;29.09
21361;BME280;10839;43.206;23.550;2023-03-18T08:35:35;97726.88;;;21.18;29.80
21361;BME280;10839;43.206;23.550;2023-03-18T08:38:01;97736.03;;;20.28;30.26
21361;BME280;10839;43.206;23.550;2023-03-18T08:40:28;97736.19;;;19.98;31.07
21361;BME280;10839;43.206;23.550;2023-03-18T08:42:55;97739.34;;;20.70;30.44
21361;BME280;10839;43.206;23.550;2023-03-18T08:45:22;97746.88;;;18.60;32.31
21361;BME280;10839;43.206;23.550;2023-03-18T08:47:48;97735.66;;;16.92;34.88
21361;BME280;10839;43.206;23.550;2023-03-18T08:50:14;97735.88;;;15.52;36.17
21361;BME280;10839;43.206;23.550;2023-03-18T08:52:40;97744.38;;;15.35;37.12
21361;BME280;10839;43.206;23.550;2023-03-18T08:55:07;97751.09;;;12.48;43.95
21361;BME280;10839;43.206;23.550;2023-03-18T08:57:34;97750.84;;;12.22;45.60
21361;BME280;10839;43.206;23.550;2023-03-18T09:00:00;97759.44;;;11.53;47.06
21361;BME280;10839;43.206;23.550;2023-03-18T09:02:26;97764.44;;;11.27;48.82
21361;BME280;10839;43.206;23.550;2023-03-18T09:04:53;97761.16;;;10.43;51.72
21361;BME280;10839;43.206;23.550;2023-03-18T09:07:20;97767.03;;;9.77;54.21
21361;BME280;10839;43.206;23.550;2023-03-18T09:09:46;97778.22;;;9.42;55.34
21361;BME280;10839;43.206;23.550;2023-03-18T09:12:12;97759.06;;;8.82;55.43
21361;BME280;10839;43.206;23.550;2023-03-18T09:14:39;97775.81;;;9.08;51.59
21361;BME280;10839;43.206;23.550;2023-03-18T09:17:07;97773.81;;;8.94;51.40
21361;BME280;10839;43.206;23.550;2023-03-18T09:19:33;97777.13;;;9.12;50.24
21361;BME280;10839;43.206;23.550;2023-03-18T09:21:59;97783.56;;;8.71;52.03
21361;BME280;10839;43.206;23.550;2023-03-18T09:24:26;97782.38;;;8.49;52.28
21361;BME280;10839;43.206;23.550;2023-03-18T09:26:52;97774.16;;;8.75;51.78
21361;BME280;10839;43.206;23.550;2023-03-18T09:29:17;97790.94;;;8.85;51.34
21361;BME280;10839;43.206;23.550;2023-03-18T09:31:43;97792.25;;;8.89;51.25
21361;BME280;10839;43.206;23.550;2023-03-18T09:34:09;97782.19;;;8.99;50.63
21361;BME280;10839;43.206;23.550;2023-03-18T09:36:38;97789.38;;;9.23;50.14
21361;BME280;10839;43.206;23.550;2023-03-18T09:39:05;97797.03;;;9.88;48.85
21361;BME280;10839;43.206;23.550;2023-03-18T09:44:26;97774.34;;;11.12;44.22
21361;BME280;10839;43.206;23.550;2023-03-18T09:52:17;97781.16;;;11.08;44.38
21361;BME280;10839;43.206;23.550;2023-03-18T09:55:07;97789.09;;;11.01;44.30
21361;BME280;10839;43.206;23.550;2023-03-18T09:57:45;97782.63;;;11.25;44.10
21361;BME280;10839;43.206;23.550;2023-03-18T10:00:24;97784.91;;;10.99;43.96
21361;BME280;10839;43.206;23.550;2023-03-18T10:03:30;97779.88;;;11.91;42.35
21361;BME280;10839;43.206;23.550;2023-03-18T10:06:27;97783.84;;;11.22;43.14
21361;BME280;10839;43.206;23.550;2023-03-18T10:09:07;97785.69;;;10.85;43.75
21361;BME280;10839;43.206;23.550;2023-03-18T10:11:43;97773.78;;;11.68;42.39
21361;BME280;10839;43.206;23.550;2023-03-18T10:19:32;97779.72;;;11.78;43.24
21361;BME280;10839;43.206;23.550;2023-03-18T10:22:17;97784.34;;;11.26;44.09
21361;BME280;10839;43.206;23.550;2023-03-18T10:27:44;97772.06;;;12.88;41.36
21361;BME280;10839;43.206;23.550;2023-03-18T10:33:45;97769.97;;;13.05;38.71
21361;BME280;10839;43.206;23.550;2023-03-18T10:36:17;97767.56;;;13.17;37.97
21361;BME280;10839;43.206;23.550;2023-03-18T10:38:47;97762.91;;;14.60;36.87
21361;BME280;10839;43.206;23.550;2023-03-18T10:41:34;97773.13;;;14.11;36.77
21361;BME280;10839;43.206;23.550;2023-03-18T10:44:10;97766.09;;;13.42;37.50
21361;BME280;10839;43.206;23.550;2023-03-18T10:46:39;97763.53;;;11.78;39.76
21361;BME280;10839;43.206;23.550;2023-03-18T10:49:16;97766.06;;;10.99;41.00
21361;BME280;10839;43.206;23.550;2023-03-18T10:54:41;97760.56;;;12.02;39.50
21361;BME280;10839;43.206;23.550;2023-03-18T10:57:13;97749.66;;;12.31;38.24
21361;BME280;10839;43.206;23.550;2023-03-18T10:59:40;97748.41;;;13.46;37.08
21361;BME280;10839;43.206;23.550;2023-03-18T11:05:12;97735.41;;;14.57;35.06
21361;BME280;10839;43.206;23.550;2023-03-18T11:08:00;97750.97;;;13.88;34.47
21361;BME280;10839;43.206;23.550;2023-03-18T11:10:38;97739.53;;;14.46;33.81
21361;BME280;10839;43.206;23.550;2023-03-18T11:13:15;97733.38;;;15.44;32.52
21361;BME280;10839;43.206;23.550;2023-03-18T11:15:48;97726.81;;;16.28;31.43
21361;BME280;10839;43.206;23.550;2023-03-18T11:18:20;97727.91;;;14.52;32.02
21361;BME280;10839;43.206;23.550;2023-03-18T11:20:54;97731.09;;;13.34;33.83
21361;BME280;10839;43.206;23.550;2023-03-18T11:23:36;97722.94;;;15.01;31.59
21361;BME280;10839;43.206;23.550;2023-03-18T11:28:47;97724.63;;;13.62;33.84
21361;BME280;10839;43.206;23.550;2023-03-18T11:31:17;97725.78;;;13.47;33.96
21361;BME280;10839;43.206;23.550;2023-03-18T11:33:43;97723.63;;;13.36;34.30
21361;BME280;10839;43.206;23.550;2023-03-18T11:36:19;97721.44;;;13.93;33.73
21361;BME280;10839;43.206;23.550;2023-03-18T11:38:57;97726.59;;;14.29;31.96
21361;BME280;10839;43.206;23.550;2023-03-18T11:41:26;97688.25;;;15.56;30.98
21361;BME280;10839;43.206;23.550;2023-03-18T11:44:05;97719.75;;;12.47;35.81
21361;BME280;10839;43.206;23.550;2023-03-18T11:49:20;97701.13;;;13.29;33.56
21361;BME280;10839;43.206;23.550;2023-03-18T11:54:41;97703.53;;;12.68;34.09
21361;BME280;10839;43.206;23.550;2023-03-18T12:10:55;97683.50;;;14.40;31.49
21361;BME280;10839;43.206;23.550;2023-03-18T12:13:37;97674.16;;;14.95;31.81
21361;BME280;10839;43.206;23.550;2023-03-18T12:19:41;97696.00;;;13.13;33.79
21361;BME280;10839;43.206;23.550;2023-03-18T12:22:12;97689.34;;;13.09;34.75
21361;BME280;10839;43.206;23.550;2023-03-18T12:35:44;97702.72;;;11.90;36.42
21361;BME280;10839;43.206;23.550;2023-03-18T12:41:08;97692.97;;;11.60;37.44
21361;BME280;10839;43.206;23.550;2023-03-18T12:52:14;97700.59;;;11.71;37.14
21361;BME280;10839;43.206;23.550;2023-03-18T12:55:00;97708.72;;;11.42;37.27
21361;BME280;10839;43.206;23.550;2023-03-18T13:00:19;97713.00;;;10.85;37.35
21361;BME280;10839;43.206;23.550;2023-03-18T13:05:29;97701.91;;;11.02;37.56
21361;BME280;10839;43.206;23.550;2023-03-18T13:10:56;97689.78;;;12.21;36.15
21361;BME280;10839;43.206;23.550;2023-03-18T13:13:25;97682.59;;;12.07;35.71
21361;BME280;10839;43.206;23.550;2023-03-18T13:15:53;97686.78;;;12.52;35.36
21361;BME280;10839;43.206;23.550;2023-03-18T13:18:40;97684.88;;;11.89;35.61
21361;BME280;10839;43.206;23.550;2023-03-18T13:21:12;97676.34;;;11.71;36.30
21361;BME280;10839;43.206;23.550;2023-03-18T13:24:11;97681.75;;;11.42;36.15
21361;BME280;10839;43.206;23.550;2023-03-18T13:26:48;97682.91;;;11.98;35.60
21361;BME280;10839;43.206;23.550;2023-03-18T13:42:41;97669.06;;;11.86;36.42
21361;BME280;10839;43.206;23.550;2023-03-18T13:45:37;97670.28;;;12.19;35.64
21361;BME280;10839;43.206;23.550;2023-03-18T13:48:08;97670.28;;;12.68;35.13
21361;BME280;10839;43.206;23.550;2023-03-18T13:50:38;97674.22;;;12.44;34.68
21361;BME280;10839;43.206;23.550;2023-03-18T13:53:18;97674.31;;;12.09;35.36
21361;BME280;10839;43.206;23.550;2023-03-18T13:55:52;97675.22;;;11.80;35.23
21361;BME280;10839;43.206;23.550;2023-03-18T13:58:22;97674.84;;;11.83;35.89
21361;BME280;10839;43.206;23.550;2023-03-18T14:13:43;97660.22;;;12.13;35.44
21361;BME280;10839;43.206;23.550;2023-03-18T14:16:12;97656.53;;;12.14;35.62
21361;BME280;10839;43.206;23.550;2023-03-18T14:18:39;97667.91;;;11.74;36.19
21361;BME280;10839;43.206;23.550;2023-03-18T14:21:25;97666.22;;;11.58;37.43
21361;BME280;10839;43.206;23.550;2023-03-18T14:24:12;97669.81;;;11.80;37.37
21361;BME280;10839;43.206;23.550;2023-03-18T14:27:14;97676.72;;;11.68;37.69
21361;BME280;10839;43.206;23.550;2023-03-18T14:29:44;97676.94;;;10.94;38.28
21361;BME280;10839;43.206;23.550;2023-03-18T14:37:55;97689.91;;;10.76;39.53
21361;BME280;10839;43.206;23.550;2023-03-18T14:40:26;97688.88;;;10.40;39.65
21361;BME280;10839;43.206;23.550;2023-03-18T14:43:01;97682.13;;;10.58;39.88
21361;BME280;10839;43.206;23.550;2023-03-18T14:45:37;97682.97;;;10.59;39.57
21361;BME280;10839;43.206;23.550;2023-03-18T14:50:44;97686.75;;;11.01;40.24
21361;BME280;10839;43.206;23.550;2023-03-18T14:55:42;97692.97;;;10.87;41.53
21361;BME280;10839;43.206;23.550;2023-03-18T14:58:14;97689.22;;;10.59;41.53
21361;BME280;10839;43.206;23.550;2023-03-18T15:00:42;97697.03;;;10.69;41.61
21361;BME280;10839;43.206;23.550;2023-03-18T15:03:21;97692.97;;;10.50;41.98
21361;BME280;10839;43.206;23.550;2023-03-18T15:05:48;97692.78;;;10.52;42.13
21361;BME280;10839;43.206;23.550;2023-03-18T15:08:23;97691.13;;;10.51;42.17
21361;BME280;10839;43.206;23.550;2023-03-18T15:10:51;97686.50;;;10.45;42.35
21361;BME280;10839;43.206;23.550;2023-03-18T15:13:20;97682.97;;;10.59;41.94